Ana Sayfa
METAR-TAF:

METAR-TAF

Havaalanları :

Bandar Lenge Havaalanı

Bandar Lenge, İran

Enlem: 26-35N, Boylam: 054-50E, yükseklik: 14 m

Güncel hava durumu gözlemi

Rapor saat 10:00 UTC de 56 dakika önce yapıldı.
Rüzgar kuzeydan 4 kt
Sıcaklık 25°C
Nem 41%
Basınç 1011 hPa
Görüş mesafesi 10 km veya daha fazla
1500 m altında bulut yok ve kümülonimbus yok

METAR: OIBL 121000Z 36004KT CAVOK 25/11 Q1011

Saat: 14:26 (10:56 UTC)


TAF: eksik

4.000'den fazla havaalanı için hava durumu gözlemleri ve tahminleri (METAR ve TAF raporları).

Kullanılabilir istasyonlar harita üzerinde sarı ve kırmızı noktalarla gösterilir.

İstasyonun adını görmek için fareyi noktanın üzerinde gezdirin.

Sonrasında hava gözlem ve tahminlerini görmek için tıklayın.

Haritayı değiştirmek için: yaklaştırmak için siyah artı işaretli yeşil düğmeye ve uzaklaştırmak için de eksi işaretli düğmeye hızla tıklayın; bitişik haritalar için yeşil okları kullanın.


METAR-TAF: